Terminal Aerodrome Forecast
Issued by NWS

Home | Current Version | Previous Version | Text Only | Print | Product List | Glossary On
Versions: 1 2 3 4 5 6 7 8 9 10 11 12
000
FTUS44 KOUN 231129
TAFLAW
TAF
KLAW 231129Z 2312/2412 14013KT P6SM SCT012
      TEMPO 2312/2316 BKN012
     FM231700 18017G32KT P6SM SCT150
     FM240400 18020G28KT P6SM BKN120=

USA.gov is the U.S. government's official web portal to all federal, state and local government web resources and services.